Pagina principale
METAR-TAF:

METAR-TAF

Aeroporti :

Aeroporto di Corfù-Giovanni Capodistria

Corfù, Grecia

latitudine: 39-37N, longitudine: 019-55E, altezza: 2 m

Osservazione

Il bollettino è stato emesso 31 minuti fa, alle 12:50 UTC
Vento 5 kt da nord
Temperature 11°C
Umidità 28%
Pressione 1028 hPa
Visibilità 10 km o più
Poco nuvoloso ad un'altezza di 7000 ft

METAR: LGKR 091250Z 36005KT 9999 FEW070 11/M07 Q1028 NOSIG

Ora: 15:21 (13:21 UTC)

Previsione

Il bollettino è stato emesso 2 ore e 21 minuti fa, alle 11:00 UTC
Previsione valida dal 09 alle 12 UTC al 10 alle 12 UTC
Vento 10 kt da est
Visibilità 10 km o più
Poco nuvoloso ad un'altezza di 2500 ft
Nuvoloso ad un'altezza di 8000 ft

TAF: LGKR 091100Z 0912/1012 08010KT 9999 FEW025 BKN080

Osservazioni e previsioni meteorologiche di più di 4000 aeroporti (messaggi METAR e TAF).

Le stazioni disponibili sono rappresentate dai dischi gialli e rossi sulla carta.

Puntare il mouse per vedere il nome della stazione.

Clicca sopra per visualizzare le osservazioni e previsioni meteorologiche.

Per cambiare la mappa : fare clic sui pulsanti verdi con una croce nera per ingrandire, il pulsante verde con un trattino per diminuire, o sulla freccia verde per le mappe adiacenti.


METAR-TAF: